createdAt,value
2022-10-16T00:02:36.123Z,35.00
2022-10-16T00:07:38.263Z,35.00
2022-10-16T00:12:40.356Z,35.00
2022-10-16T00:17:42.485Z,34.90
2022-10-16T00:27:46.995Z,34.80
2022-10-16T00:32:49.079Z,34.80
2022-10-16T00:37:51.220Z,35.00
2022-10-16T00:42:53.262Z,35.20
2022-10-16T00:47:56.727Z,35.20
2022-10-16T00:52:59.983Z,35.60
2022-10-16T00:58:02.034Z,35.40
2022-10-16T01:03:23.059Z,35.50
2022-10-16T01:08:46.063Z,35.70
2022-10-16T01:13:54.160Z,35.50
2022-10-16T01:19:06.671Z,35.60
2022-10-16T01:24:28.080Z,35.40
2022-10-16T01:29:49.555Z,35.50
2022-10-16T01:35:11.956Z,35.30
2022-10-16T01:45:20.821Z,35.20
2022-10-16T01:50:24.847Z,35.30
2022-10-16T01:55:34.142Z,35.30
2022-10-16T02:00:40.705Z,35.30
2022-10-16T02:05:57.535Z,35.20
2022-10-16T02:11:02.299Z,35.40
2022-10-16T02:16:04.648Z,35.40
2022-10-16T02:21:26.357Z,35.30
2022-10-16T02:26:42.571Z,35.30
2022-10-16T02:31:50.363Z,35.60
2022-10-16T02:36:54.043Z,35.50
2022-10-16T02:41:56.160Z,35.70
2022-10-16T02:46:58.218Z,35.60
2022-10-16T02:52:00.404Z,35.60
2022-10-16T02:57:02.512Z,36.30
2022-10-16T03:02:04.952Z,35.60
2022-10-16T03:07:07.069Z,35.50
2022-10-16T03:12:09.207Z,35.50
2022-10-16T03:17:11.329Z,36.40
2022-10-16T03:22:13.559Z,35.50
2022-10-16T03:27:15.738Z,35.70
2022-10-16T03:32:17.868Z,35.70
2022-10-16T03:37:19.916Z,35.50
2022-10-16T03:42:22.136Z,35.50
2022-10-16T03:47:25.002Z,35.60
2022-10-16T03:52:27.728Z,35.40
2022-10-16T03:57:30.091Z,35.30
2022-10-16T04:02:32.388Z,35.50
2022-10-16T04:12:37.168Z,35.20
2022-10-16T04:17:39.246Z,35.50
2022-10-16T04:22:42.490Z,35.30
2022-10-16T04:27:46.085Z,35.30
2022-10-16T04:32:52.877Z,35.30
2022-10-16T04:37:55.027Z,35.20
2022-10-16T04:42:57.072Z,35.70
2022-10-16T04:48:00.178Z,35.60
2022-10-16T04:53:02.450Z,35.60
2022-10-16T04:58:04.697Z,36.30
2022-10-16T05:03:09.505Z,35.50
2022-10-16T05:08:12.823Z,35.50
2022-10-16T05:13:14.942Z,35.50
2022-10-16T05:18:17.843Z,35.60
2022-10-16T05:23:19.915Z,35.80
2022-10-16T05:28:22.687Z,36.10
2022-10-16T05:33:26.572Z,36.10
2022-10-16T05:38:28.658Z,36.00
2022-10-16T05:43:30.975Z,36.00
2022-10-16T05:48:33.966Z,35.90
2022-10-16T05:53:38.159Z,36.00
2022-10-16T05:58:45.043Z,36.20
2022-10-16T06:08:50.464Z,36.10
2022-10-16T06:13:54.315Z,36.10
2022-10-16T06:18:57.018Z,36.10
2022-10-16T06:23:59.205Z,36.30
2022-10-16T06:29:01.771Z,36.00
2022-10-16T06:34:05.699Z,36.10
2022-10-16T06:39:08.305Z,36.10
2022-10-16T06:49:12.965Z,36.30
2022-10-16T06:54:17.320Z,36.40
2022-10-16T06:59:19.677Z,36.50
2022-10-16T07:04:21.685Z,36.50
2022-10-16T07:09:23.767Z,37.40
2022-10-16T07:14:26.105Z,36.80
2022-10-16T07:19:31.883Z,36.90
2022-10-16T07:24:35.730Z,37.10
2022-10-16T07:29:38.072Z,36.90
2022-10-16T07:34:40.392Z,36.90
2022-10-16T07:39:42.516Z,37.00
2022-10-16T07:44:44.591Z,36.80
2022-10-16T07:49:46.649Z,36.90
2022-10-16T07:54:48.805Z,37.00
2022-10-16T07:59:51.033Z,36.80
2022-10-16T08:04:53.113Z,36.70
2022-10-16T08:09:57.374Z,36.60
2022-10-16T08:14:59.524Z,36.70
2022-10-16T08:20:02.590Z,36.50
2022-10-16T08:25:04.849Z,36.50
2022-10-16T08:30:07.793Z,36.50
2022-10-16T08:35:11.424Z,36.50
2022-10-16T08:40:28.281Z,36.40
2022-10-16T08:45:45.337Z,36.60
2022-10-16T08:50:50.486Z,37.40
2022-10-16T08:55:54.592Z,37.50
2022-10-16T09:01:02.681Z,38.30
2022-10-16T09:06:27.909Z,39.30
2022-10-16T09:11:57.026Z,38.40
2022-10-16T09:22:17.472Z,38.20
2022-10-16T09:27:19.545Z,38.70
2022-10-16T09:32:23.139Z,37.60
2022-10-16T09:37:26.811Z,37.00
2022-10-16T09:42:34.516Z,35.80
2022-10-16T09:47:40.935Z,35.70
2022-10-16T09:52:43.084Z,35.70
2022-10-16T10:01:15.511Z,35.90
2022-10-16T10:06:25.812Z,36.10
2022-10-16T10:11:50.640Z,36.30
2022-10-16T10:17:03.554Z,36.30
2022-10-16T10:22:23.868Z,35.50
2022-10-16T10:27:46.826Z,34.50
2022-10-16T10:33:26.327Z,33.40
2022-10-16T10:38:46.505Z,33.40
2022-10-16T10:44:15.544Z,34.10
2022-10-16T10:49:29.350Z,34.10
2022-10-16T10:54:42.836Z,34.00
2022-10-16T10:59:55.216Z,34.10
2022-10-16T11:05:18.848Z,34.00
2022-10-16T11:10:29.783Z,34.00
2022-10-16T11:15:36.199Z,33.70
2022-10-16T11:20:43.571Z,33.10
2022-10-16T11:25:47.507Z,33.10
2022-10-16T11:31:00.241Z,33.10
2022-10-16T11:36:14.143Z,32.70
2022-10-16T11:41:43.052Z,32.10
2022-10-16T11:47:28.658Z,31.10
2022-10-16T11:52:35.570Z,29.70
2022-10-16T11:57:46.682Z,29.60
2022-10-16T12:03:01.130Z,29.20
2022-10-16T12:08:17.518Z,27.80
2022-10-16T12:13:38.135Z,28.40
2022-10-16T12:18:47.687Z,27.90
2022-10-16T12:23:57.525Z,28.10
2022-10-16T12:29:35.283Z,28.00
2022-10-16T12:34:44.491Z,28.20
2022-10-16T12:39:47.612Z,28.20
2022-10-16T12:44:49.986Z,28.90
2022-10-16T12:49:54.703Z,28.60
2022-10-16T12:55:00.150Z,27.90
2022-10-16T13:00:13.679Z,27.70
2022-10-16T13:05:41.293Z,26.70
2022-10-16T13:11:10.270Z,27.00
2022-10-16T13:16:43.394Z,26.90
2022-10-16T13:21:54.233Z,27.40
2022-10-16T13:27:13.312Z,27.50
2022-10-16T13:32:16.847Z,27.90
2022-10-16T13:37:22.030Z,27.90
2022-10-16T13:42:28.726Z,28.10
2022-10-16T13:47:31.185Z,28.20
2022-10-16T13:52:33.894Z,28.30
2022-10-16T13:57:35.846Z,28.40
2022-10-16T14:02:41.108Z,29.10
2022-10-16T14:07:43.987Z,29.00
2022-10-16T14:12:46.681Z,29.40
2022-10-16T14:17:52.856Z,29.60
2022-10-16T14:23:30.013Z,30.10
2022-10-16T14:28:32.246Z,30.70
2022-10-16T14:33:35.282Z,30.20
2022-10-16T14:38:40.228Z,30.10
2022-10-16T14:43:46.400Z,30.10
2022-10-16T14:48:54.830Z,30.20
2022-10-16T14:54:00.123Z,30.20
2022-10-16T14:59:03.903Z,30.40
2022-10-16T15:04:06.087Z,30.40
2022-10-16T15:09:08.287Z,30.20
2022-10-16T15:19:21.741Z,29.40
2022-10-16T15:24:23.940Z,29.80
2022-10-16T15:29:26.019Z,29.00
2022-10-16T15:34:28.109Z,28.40
2022-10-16T15:39:30.271Z,28.50
2022-10-16T15:44:32.604Z,28.30
2022-10-16T15:49:34.666Z,28.30
2022-10-16T15:54:36.745Z,28.10
2022-10-16T15:59:38.867Z,27.90
2022-10-16T16:04:44.815Z,27.90
2022-10-16T16:09:47.213Z,27.90
2022-10-16T16:14:50.022Z,27.90
2022-10-16T16:19:52.509Z,28.00
2022-10-16T16:24:54.682Z,28.20
2022-10-16T16:29:57.196Z,28.50
2022-10-16T16:34:59.121Z,28.40
2022-10-16T16:40:01.180Z,28.70
2022-10-16T16:45:03.395Z,28.80
2022-10-16T16:50:07.771Z,29.00
2022-10-16T16:55:09.929Z,29.10
2022-10-16T17:00:12.520Z,29.10
2022-10-16T17:05:14.567Z,29.10
2022-10-16T17:10:16.648Z,29.40
2022-10-16T17:15:18.828Z,29.50
2022-10-16T17:25:25.135Z,29.50
2022-10-16T17:30:27.700Z,29.50
2022-10-16T17:35:29.912Z,29.50
2022-10-16T17:40:32.315Z,29.60
2022-10-16T17:45:38.491Z,29.70
2022-10-16T17:50:42.848Z,29.60
2022-10-16T17:55:44.871Z,29.90
2022-10-16T18:05:49.452Z,30.00
2022-10-16T18:10:51.604Z,30.20
2022-10-16T18:16:20.469Z,30.30
2022-10-16T18:21:23.865Z,30.10
2022-10-16T18:26:26.444Z,30.40
2022-10-16T18:31:29.021Z,30.30
2022-10-16T18:36:33.145Z,30.30
2022-10-16T18:41:37.096Z,30.70
2022-10-16T18:46:39.744Z,30.70
2022-10-16T18:51:44.135Z,31.00
2022-10-16T18:56:46.195Z,30.80
2022-10-16T19:01:49.998Z,31.10
2022-10-16T19:06:53.925Z,31.10
2022-10-16T19:11:57.423Z,31.00
2022-10-16T19:16:59.702Z,31.00
2022-10-16T19:22:11.819Z,31.80
2022-10-16T19:27:13.991Z,31.30
2022-10-16T19:32:16.062Z,31.30
2022-10-16T19:37:18.269Z,31.10
2022-10-16T19:42:20.430Z,31.40
2022-10-16T19:47:23.298Z,32.20
2022-10-16T19:52:25.938Z,31.20
2022-10-16T19:57:28.282Z,31.10
2022-10-16T20:02:30.467Z,31.00
2022-10-16T20:07:34.761Z,31.20
2022-10-16T20:12:37.356Z,31.40
2022-10-16T20:17:39.496Z,31.30
2022-10-16T20:22:41.575Z,31.50
2022-10-16T20:27:43.696Z,32.20
2022-10-16T20:32:46.166Z,31.60
2022-10-16T20:37:49.007Z,31.70
2022-10-16T20:42:51.061Z,31.80
2022-10-16T20:47:53.138Z,31.70
2022-10-16T20:52:55.325Z,31.70
2022-10-16T20:57:57.556Z,31.60
2022-10-16T21:08:02.260Z,31.40
2022-10-16T21:13:04.410Z,31.80
2022-10-16T21:18:06.514Z,31.90
2022-10-16T21:23:08.569Z,31.70
2022-10-16T21:28:10.604Z,31.80
2022-10-16T21:38:15.285Z,31.80
2022-10-16T21:43:17.328Z,31.70
2022-10-16T21:48:19.688Z,32.50
2022-10-16T21:53:21.863Z,31.90
2022-10-16T21:58:23.941Z,31.50
2022-10-16T22:03:26.000Z,31.00
2022-10-16T22:08:28.347Z,30.70
2022-10-16T22:13:30.533Z,31.00
2022-10-16T22:18:33.985Z,31.90
2022-10-16T22:23:36.603Z,31.50
2022-10-16T22:28:40.161Z,31.40
2022-10-16T22:33:43.074Z,31.40
2022-10-16T22:38:45.097Z,31.60
2022-10-16T22:43:48.801Z,32.40
2022-10-16T22:48:51.276Z,31.80
2022-10-16T22:53:53.721Z,31.90
2022-10-16T22:58:55.817Z,32.90
2022-10-16T23:03:58.342Z,32.90
2022-10-16T23:09:01.862Z,33.00
2022-10-16T23:14:03.913Z,32.70
2022-10-16T23:19:06.040Z,32.70
2022-10-16T23:24:08.600Z,33.50
2022-10-16T23:29:10.773Z,33.90
2022-10-16T23:34:12.925Z,35.20
2022-10-16T23:39:15.360Z,35.30
2022-10-16T23:44:17.469Z,36.10
2022-10-16T23:49:19.504Z,35.50
2022-10-16T23:59:23.969Z,35.50
